Time;durP1;ratioP1;P1;durP2;ratioP2;P2;SDS_P1;SDS_P2;PMS_P1;PMS_P2;Temp;Humidity;BMP_temperature;BMP_pressure;BME280_temperature;BME280_humidity;BME280_pressure;Samples;Min_cycle;Max_cycle;Signal;HPM_P1;HPM_P2
2021/12/22 00:01:04;;;;;;;35.45;17.20;;;;;;;-1.29;64.49;100785.13;4442830;32;33877;-68
2021/12/22 00:03:32;;;;;;;36.47;16.67;;;;;;;-1.37;64.88;100785.00;4452765;32;33304;-66
2021/12/22 00:06:00;;;;;;;39.35;16.85;;;;;;;-1.59;65.38;100786.22;4456621;32;33993;-64
2021/12/22 00:08:28;;;;;;;10.32;5.62;;;;;;;-1.17;65.06;100794.59;4452804;32;34277;-67
2021/12/22 00:10:56;;;;;;;2.05;0.95;;;;;;;-0.93;63.34;100783.41;4453878;32;34199;-66
2021/12/22 00:13:23;;;;;;;1.73;0.88;;;;;;;-1.00;64.10;100792.97;4468005;32;34365;-69
2021/12/22 00:15:51;;;;;;;25.58;13.57;;;;;;;-1.38;65.28;100789.50;4467948;32;33723;-70
2021/12/22 00:18:19;;;;;;;24.45;12.63;;;;;;;-1.06;64.01;100789.09;4468127;32;35224;-66
2021/12/22 00:20:46;;;;;;;2.20;2.10;;;;;;;-1.65;65.44;100799.09;4450377;32;33913;-65
2021/12/22 00:23:14;;;;;;;6.75;4.25;;;;;;;-1.27;64.75;100796.47;4443302;32;34398;-66
2021/12/22 00:25:41;;;;;;;4.50;2.80;;;;;;;-0.81;63.45;100799.19;4468755;32;34087;-69
2021/12/22 00:28:09;;;;;;;15.63;8.65;;;;;;;-1.06;64.38;100809.53;4483740;32;34211;-71
2021/12/22 00:30:39;;;;;;;22.40;10.07;;;;;;;-1.13;64.81;100817.28;4483655;32;34081;-68
2021/12/22 00:33:09;;;;;;;26.48;12.10;;;;;;;-0.98;63.88;100822.12;4483874;32;33856;-65
2021/12/22 00:35:44;;;;;;;2.95;2.05;;;;;;;-1.08;63.73;100832.81;4482513;32;34786;-66
2021/12/22 00:38:14;;;;;;;2.03;1.90;;;;;;;-1.94;66.93;100835.56;4483333;32;34018;-66
2021/12/22 00:40:42;;;;;;;0.70;0.70;;;;;;;-1.27;64.41;100831.91;4483297;32;34108;-70
2021/12/22 00:43:10;;;;;;;1.48;1.37;;;;;;;-1.83;66.31;100837.22;4483801;32;33534;-65
2021/12/22 00:45:38;;;;;;;19.60;9.10;;;;;;;-1.29;64.10;100833.87;4479252;32;33899;-70
2021/12/22 00:48:07;;;;;;;19.10;10.27;;;;;;;-1.57;65.88;100848.09;4482139;31;34255;-66
2021/12/22 00:50:37;;;;;;;19.30;10.20;;;;;;;-1.94;66.84;100839.03;4483062;32;34128;-70
2021/12/22 00:53:05;;;;;;;18.15;10.10;;;;;;;-1.40;65.97;100839.38;4483512;32;33691;-66
2021/12/22 00:55:32;;;;;;;5.32;3.62;;;;;;;-1.56;66.19;100844.44;4483729;32;34074;-74
2021/12/22 00:58:00;;;;;;;16.75;9.40;;;;;;;-0.98;65.05;100836.28;4483338;32;34142;-70
2021/12/22 01:00:27;;;;;;;0.77;0.70;;;;;;;-0.88;64.04;100836.25;4483263;32;34438;-71
2021/12/22 01:02:55;;;;;;;14.93;8.55;;;;;;;-1.49;65.11;100848.22;4482577;32;34514;-73
2021/12/22 01:05:23;;;;;;;2.65;1.95;;;;;;;-1.82;65.84;100852.19;4482317;32;33917;-65
2021/12/22 01:07:51;;;;;;;15.77;8.43;;;;;;;-1.19;64.10;100852.47;4483134;32;33705;-68
2021/12/22 01:10:21;;;;;;;1.95;1.30;;;;;;;-0.77;63.05;100857.37;4482749;32;34419;-67
2021/12/22 01:12:52;;;;;;;16.48;8.57;;;;;;;-0.88;63.42;100861.06;4483208;32;33774;-69
2021/12/22 01:15:20;;;;;;;1.25;1.15;;;;;;;-1.56;64.94;100861.25;4483398;32;33911;-71
2021/12/22 01:17:56;;;;;;;0.60;0.60;;;;;;;-1.49;66.26;100853.53;4483084;32;34912;-66
2021/12/22 01:20:35;;;;;;;19.17;9.32;;;;;;;-1.13;65.35;100857.22;4482596;32;35184;-70
2021/12/22 01:23:05;;;;;;;16.67;9.18;;;;;;;-1.24;65.44;100857.41;4482864;32;33710;-70
2021/12/22 01:25:42;;;;;;;1.33;1.08;;;;;;;-1.25;65.32;100864.56;4483415;32;34735;-72
2021/12/22 01:28:11;;;;;;;14.32;8.90;;;;;;;-0.67;63.50;100857.31;4459667;32;33997;-65
2021/12/22 01:30:44;;;;;;;9.73;5.62;;;;;;;-1.08;64.38;100854.97;4454032;32;34073;-68
2021/12/22 01:33:13;;;;;;;15.77;9.30;;;;;;;-0.85;64.10;100851.94;4477250;32;34083;-70
2021/12/22 01:35:41;;;;;;;16.85;9.60;;;;;;;-1.09;64.42;100853.28;4485148;32;33996;-67
2021/12/22 01:38:09;;;;;;;16.73;9.60;;;;;;;-1.04;63.97;100851.03;4461430;32;34689;-71
2021/12/22 01:40:42;;;;;;;16.58;8.90;;;;;;;-0.87;63.71;100856.56;4452667;32;33858;-65
2021/12/22 01:43:10;;;;;;;16.30;9.15;;;;;;;-1.48;65.12;100858.72;4463452;32;33694;-69
2021/12/22 01:45:56;;;;;;;16.75;9.68;;;;;;;-0.97;64.26;100858.41;4455586;32;33940;-66
2021/12/22 01:51:46;;;;;;;16.00;8.27;;;;;;;-0.87;63.41;100861.91;4469575;32;33986;-65
2021/12/22 01:54:33;;;;;;;14.93;8.13;;;;;;;-1.01;63.94;100859.72;4481250;32;34065;-67
2021/12/22 01:57:06;;;;;;;0.50;0.50;;;;;;;-1.18;64.09;100854.16;4485089;32;34891;-69
2021/12/22 01:59:35;;;;;;;0.50;0.50;;;;;;;-1.22;64.65;100854.59;4470662;32;34051;-67
2021/12/22 02:02:05;;;;;;;14.27;7.95;;;;;;;-0.87;63.64;100860.06;4455430;32;33819;-66
2021/12/22 02:04:33;;;;;;;16.65;8.60;;;;;;;-1.56;65.52;100858.59;4482466;32;33072;-69
2021/12/22 02:07:01;;;;;;;16.83;9.18;;;;;;;-2.00;67.19;100865.38;4458742;32;33566;-65
2021/12/22 02:10:24;;;;;;;21.30;10.23;;;;;;;-1.94;67.11;100870.13;4453465;32;35292;-75
2021/12/22 02:12:19;;;;;;;1.52;1.33;;;;;;;-1.92;67.38;100871.66;4456408;32;32890;-71
2021/12/22 02:14:47;;;;;;;0.40;0.40;;;;;;;-1.57;65.68;100866.75;4485145;32;34534;-69
2021/12/22 02:17:14;;;;;;;16.60;9.90;;;;;;;-1.47;65.53;100862.22;4474242;32;34786;-71
2021/12/22 02:19:46;;;;;;;15.57;9.25;;;;;;;-1.51;65.02;100871.47;4468554;32;34095;-69
2021/12/22 02:22:16;;;;;;;1.48;1.37;;;;;;;-1.22;64.18;100873.25;4464048;32;34940;-73
2021/12/22 02:24:46;;;;;;;15.10;9.15;;;;;;;-1.19;63.75;100871.09;4485291;32;34574;-66
2021/12/22 02:27:23;;;;;;;1.17;0.88;;;;;;;-1.57;65.03;100867.56;4458491;32;34023;-66
2021/12/22 02:29:57;;;;;;;16.23;8.43;;;;;;;-1.67;65.86;100858.75;4467666;32;34170;-72
2021/12/22 02:35:12;;;;;;;4.12;1.12;;;;;;;-1.55;65.70;100862.94;4481312;32;34400;-66
2021/12/22 02:37:45;;;;;;;15.18;8.75;;;;;;;-1.35;65.36;100858.41;4453405;32;33948;-74
2021/12/22 02:40:17;;;;;;;0.98;0.98;;;;;;;-1.39;65.31;100866.84;4463124;32;34173;-65
2021/12/22 02:42:46;;;;;;;13.68;8.00;;;;;;;-1.42;64.78;100862.66;4482367;32;34089;-74
2021/12/22 02:45:16;;;;;;;13.90;7.55;;;;;;;-0.96;62.71;100863.63;4464051;32;34159;-66
2021/12/22 02:47:44;;;;;;;12.50;7.40;;;;;;;-1.14;63.45;100865.38;4453430;32;33448;-65
2021/12/22 02:50:15;;;;;;;12.25;7.53;;;;;;;-1.55;64.11;100864.78;4458962;32;34170;-69
2021/12/22 02:55:27;;;;;;;14.90;7.97;;;;;;;-1.38;63.51;100872.03;4481164;32;33518;-68
2021/12/22 02:57:59;;;;;;;11.05;5.97;;;;;;;-1.58;64.36;100863.22;4468247;32;33738;-73
2021/12/22 03:00:35;;;;;;;4.50;2.78;;;;;;;-0.81;62.24;100863.97;4469228;32;35029;-73
2021/12/22 03:03:10;;;;;;;0.88;0.70;;;;;;;-1.09;62.91;100857.78;4467813;32;34319;-71
2021/12/22 03:05:39;;;;;;;0.93;0.60;;;;;;;-0.68;60.98;100871.63;4477031;32;33867;-66
2021/12/22 03:08:06;;;;;;;11.60;6.28;;;;;;;-1.38;63.29;100876.50;4476142;32;33714;-70
2021/12/22 03:10:34;;;;;;;1.92;1.75;;;;;;;-1.29;63.44;100884.47;4453039;32;35020;-65
2021/12/22 03:13:04;;;;;;;0.50;0.50;;;;;;;-0.39;61.89;100886.62;4465164;32;33790;-65
2021/12/22 03:15:32;;;;;;;12.20;6.72;;;;;;;-0.23;61.50;100886.81;4463799;32;34605;-66
2021/12/22 03:17:59;;;;;;;15.38;7.35;;;;;;;-0.56;63.05;100885.59;4468574;32;34082;-65
2021/12/22 03:20:27;;;;;;;0.73;0.73;;;;;;;-0.34;62.53;100887.84;4461354;32;34047;-64
2021/12/22 03:22:55;;;;;;;11.82;6.70;;;;;;;-0.23;62.38;100889.47;4473952;32;34393;-65
2021/12/22 03:25:26;;;;;;;1.48;1.37;;;;;;;-0.09;60.67;100886.28;4469599;32;33453;-64
2021/12/22 03:27:57;;;;;;;12.50;7.18;;;;;;;0.13;60.79;100890.34;4481081;32;33825;-69
2021/12/22 03:30:25;;;;;;;12.43;7.18;;;;;;;-0.46;62.14;100876.53;4469210;32;34249;-69
2021/12/22 03:32:53;;;;;;;12.45;6.57;;;;;;;-0.13;61.82;100887.59;4483140;32;34124;-67
2021/12/22 03:35:22;;;;;;;14.18;7.40;;;;;;;-0.08;61.77;100887.13;4479201;32;35215;-67
2021/12/22 03:37:53;;;;;;;1.45;1.37;;;;;;;-0.92;64.64;100896.97;4483225;32;33297;-67
2021/12/22 03:40:22;;;;;;;0.85;0.75;;;;;;;-0.33;62.90;100896.69;4475162;31;35069;-66
2021/12/22 03:42:49;;;;;;;15.90;9.00;;;;;;;0.05;60.98;100894.75;4477632;31;33788;-68
2021/12/22 03:45:17;;;;;;;1.50;1.40;;;;;;;-0.14;61.01;100893.06;4475315;32;34393;-65
2021/12/22 03:47:46;;;;;;;12.48;6.80;;;;;;;0.10;60.60;100893.28;4483008;32;34749;-67
2021/12/22 03:50:14;;;;;;;0.77;0.77;;;;;;;0.25;61.10;100890.94;4474182;31;35043;-65
2021/12/22 03:52:41;;;;;;;11.38;6.90;;;;;;;-0.04;61.42;100904.50;4489301;31;34285;-65
2021/12/22 03:55:09;;;;;;;13.43;7.47;;;;;;;-0.99;64.39;100901.22;4481420;32;33704;-65
2021/12/22 03:57:37;;;;;;;12.32;7.62;;;;;;;0.13;61.22;100902.81;4483162;32;33742;-66
2021/12/22 04:00:08;;;;;;;14.82;8.68;;;;;;;0.28;61.15;100892.44;4483267;32;35231;-66
2021/12/22 04:02:35;;;;;;;15.77;8.15;;;;;;;0.56;59.70;100893.19;4483808;32;34064;-67
2021/12/22 04:05:04;;;;;;;12.40;6.80;;;;;;;-0.38;62.23;100894.47;4483970;32;34576;-68
2021/12/22 04:07:32;;;;;;;12.82;6.22;;;;;;;-0.76;63.18;100899.00;4484186;32;33640;-67
2021/12/22 04:10:08;;;;;;;11.70;6.40;;;;;;;-0.68;63.25;100903.59;4483630;32;34232;-66
2021/12/22 04:12:36;;;;;;;12.73;6.62;;;;;;;-0.53;62.57;100904.78;4484182;32;35383;-67
2021/12/22 04:15:04;;;;;;;10.65;6.35;;;;;;;-0.47;62.76;100904.22;4484077;32;33658;-64
2021/12/22 04:17:31;;;;;;;11.35;6.45;;;;;;;-0.44;62.86;100911.06;4483785;32;34204;-64
2021/12/22 04:19:58;;;;;;;12.43;6.32;;;;;;;-0.62;63.08;100909.19;4483609;32;35015;-63
2021/12/22 04:22:26;;;;;;;10.68;6.28;;;;;;;-0.02;61.53;100911.37;4483970;32;34880;-64
2021/12/22 04:24:54;;;;;;;10.88;6.20;;;;;;;0.14;60.71;100916.03;4483142;32;34554;-67
2021/12/22 04:27:21;;;;;;;11.75;6.15;;;;;;;-0.15;62.05;100924.25;4483993;32;33608;-66
2021/12/22 04:29:49;;;;;;;1.48;0.82;;;;;;;-0.19;62.20;100930.00;4483662;32;33966;-68
2021/12/22 04:32:16;;;;;;;9.85;5.90;;;;;;;0.12;61.80;100928.69;4483873;32;34316;-65
2021/12/22 04:34:44;;;;;;;2.40;1.58;;;;;;;-0.21;62.55;100922.16;4483968;32;34065;-66
2021/12/22 04:37:11;;;;;;;3.70;2.05;;;;;;;-0.13;62.46;100913.41;4484004;32;34984;-64
2021/12/22 04:39:39;;;;;;;9.95;5.87;;;;;;;0.14;61.48;100920.53;4483221;32;34734;-66
2021/12/22 04:42:06;;;;;;;10.25;5.25;;;;;;;-0.10;62.08;100931.78;4483588;32;33916;-65
2021/12/22 04:44:34;;;;;;;0.60;0.60;;;;;;;-0.24;61.98;100930.44;4495460;31;33915;-66
2021/12/22 04:47:02;;;;;;;9.38;5.87;;;;;;;0.31;60.22;100925.03;4483494;32;34749;-66
2021/12/22 04:49:29;;;;;;;12.10;5.93;;;;;;;0.16;59.94;100924.72;4483171;32;35007;-66
2021/12/22 04:51:58;;;;;;;9.13;5.60;;;;;;;0.06;60.80;100920.44;4483538;32;35111;-66
2021/12/22 04:56:57;;;;;;;10.48;5.65;;;;;;;-0.24;62.20;100919.78;4483615;32;34040;-66
2021/12/22 04:59:25;;;;;;;9.88;5.37;;;;;;;-0.08;61.92;100921.81;4483247;32;33773;-66
2021/12/22 05:01:52;;;;;;;12.95;6.82;;;;;;;-0.69;63.09;100917.91;4482378;32;33762;-67
2021/12/22 05:04:20;;;;;;;12.20;6.95;;;;;;;-0.30;60.63;100921.25;4482762;32;33842;-66
2021/12/22 05:06:48;;;;;;;14.98;7.62;;;;;;;-0.65;60.66;100924.63;4485519;32;34493;-66
2021/12/22 05:09:15;;;;;;;14.27;6.93;;;;;;;-0.72;61.39;100918.22;4484917;32;35055;-67
2021/12/22 05:11:43;;;;;;;15.27;8.00;;;;;;;-0.09;60.97;100920.12;4484605;32;34872;-66
2021/12/22 05:14:11;;;;;;;6.85;4.68;;;;;;;-0.06;61.24;100912.66;4483250;32;33770;-66
2021/12/22 05:16:45;;;;;;;24.85;10.88;;;;;;;-0.25;61.31;100918.13;4485432;32;34618;-66
2021/12/22 05:19:16;;;;;;;30.15;13.60;;;;;;;-0.24;61.21;100935.78;4484776;32;35108;-64
2021/12/22 05:21:45;;;;;;;25.48;11.30;;;;;;;-0.39;61.19;100930.09;4484351;32;34024;-64
2021/12/22 05:24:12;;;;;;;17.52;10.18;;;;;;;0.05;60.15;100926.78;4484645;32;34429;-65
2021/12/22 05:26:40;;;;;;;20.48;9.80;;;;;;;0.05;59.72;100930.28;4485518;32;34740;-65
2021/12/22 05:29:07;;;;;;;16.25;8.85;;;;;;;-0.02;59.86;100934.56;4482412;32;35084;-66
2021/12/22 05:31:35;;;;;;;1.73;1.02;;;;;;;0.25;58.56;100928.31;4482673;32;34001;-65
2021/12/22 05:34:04;;;;;;;1.40;0.93;;;;;;;-0.03;59.24;100930.19;4467818;32;33550;-65
2021/12/22 05:36:32;;;;;;;22.90;11.80;;;;;;;-0.54;61.16;100932.44;4469059;32;34388;-65
2021/12/22 05:39:00;;;;;;;23.08;12.50;;;;;;;-0.62;61.68;100938.50;4469128;32;34986;-65
2021/12/22 05:41:27;;;;;;;22.62;11.18;;;;;;;-0.30;61.12;100953.25;4469381;32;34278;-64
2021/12/22 05:43:55;;;;;;;9.52;4.82;;;;;;;-0.13;61.49;100950.75;4468928;32;33631;-65
2021/12/22 05:46:22;;;;;;;22.00;12.52;;;;;;;-0.02;61.39;100946.06;4468900;32;33995;-65
2021/12/22 05:48:50;;;;;;;22.83;12.13;;;;;;;0.19;60.77;100948.44;4472439;32;35018;-65
2021/12/22 05:51:17;;;;;;;1.15;1.05;;;;;;;0.20;61.34;100947.44;4484757;32;34322;-65
2021/12/22 05:53:45;;;;;;;21.92;12.25;;;;;;;0.17;61.28;100946.91;4484894;32;33572;-65
2021/12/22 05:56:13;;;;;;;16.90;9.02;;;;;;;0.27;61.25;100953.00;4484935;32;34692;-66
2021/12/22 05:58:40;;;;;;;14.43;8.38;;;;;;;0.49;59.54;100949.03;4484172;32;34249;-65
2021/12/22 06:01:08;;;;;;;0.98;0.88;;;;;;;0.07;60.32;100949.66;4484871;32;34041;-66
2021/12/22 06:03:36;;;;;;;13.82;8.18;;;;;;;0.47;59.35;100955.53;4484443;32;33614;-64
2021/12/22 06:06:03;;;;;;;14.02;7.90;;;;;;;0.01;59.96;100960.09;4482888;32;33653;-65
2021/12/22 06:08:31;;;;;;;12.95;8.13;;;;;;;0.14;59.78;100956.06;4480889;32;34104;-64
2021/12/22 06:10:59;;;;;;;14.00;8.43;;;;;;;0.14;59.84;100965.91;4482728;32;34239;-64
2021/12/22 06:13:26;;;;;;;15.63;8.05;;;;;;;0.79;58.25;100977.16;4484142;32;33457;-65
2021/12/22 06:15:58;;;;;;;12.48;7.40;;;;;;;0.31;59.59;100967.72;4484467;32;33926;-70
2021/12/22 06:18:28;;;;;;;12.15;6.75;;;;;;;-0.05;60.75;100973.00;4483364;32;34096;-65
2021/12/22 06:20:55;;;;;;;1.75;1.10;;;;;;;-0.15;61.17;100985.59;4484276;32;34719;-64
2021/12/22 06:23:23;;;;;;;11.77;6.53;;;;;;;-0.18;61.23;100990.38;4484578;32;34463;-66
2021/12/22 06:25:51;;;;;;;9.88;6.03;;;;;;;-0.15;60.44;100987.41;4482397;32;34636;-64
2021/12/22 06:28:18;;;;;;;0.73;0.70;;;;;;;-0.18;59.52;100987.72;4484224;32;33861;-64
2021/12/22 06:30:45;;;;;;;0.60;0.60;;;;;;;-0.27;59.41;100986.78;4484410;32;34353;-66
2021/12/22 06:33:13;;;;;;;11.40;6.70;;;;;;;-0.79;61.14;100997.91;4483922;32;33758;-67
2021/12/22 06:35:40;;;;;;;10.95;6.28;;;;;;;-1.12;62.34;101001.91;4480001;32;34412;-64
2021/12/22 06:38:08;;;;;;;8.75;5.70;;;;;;;-1.15;62.39;100995.00;4468731;32;34156;-64
2021/12/22 06:40:35;;;;;;;1.48;0.80;;;;;;;-0.51;60.67;101001.47;4468423;32;34293;-64
2021/12/22 06:43:03;;;;;;;10.90;6.60;;;;;;;0.13;58.96;101007.75;4480316;32;34190;-64
2021/12/22 06:45:30;;;;;;;0.62;0.62;;;;;;;-0.35;60.40;101010.66;4468490;32;34906;-65
2021/12/22 06:47:58;;;;;;;0.50;0.50;;;;;;;-0.16;60.38;101017.75;4468218;32;34491;-65
2021/12/22 06:50:25;;;;;;;11.55;6.55;;;;;;;-0.01;60.22;101021.59;4467429;32;34073;-65
2021/12/22 06:52:53;;;;;;;11.05;6.80;;;;;;;-0.45;61.76;101021.38;4468462;32;34484;-66
2021/12/22 06:55:21;;;;;;;12.05;6.80;;;;;;;-0.27;61.07;101032.09;4468438;32;33519;-66
2021/12/22 06:57:53;;;;;;;11.07;7.22;;;;;;;-0.32;61.49;101024.56;4468825;32;34208;-67
2021/12/22 07:00:21;;;;;;;11.63;6.93;;;;;;;-0.32;61.82;101027.22;4468563;32;33930;-66
2021/12/22 07:02:49;;;;;;;12.73;7.25;;;;;;;-0.10;61.69;101025.16;4467850;32;34486;-66
2021/12/22 07:05:17;;;;;;;13.43;8.02;;;;;;;-0.22;61.67;101025.34;4468034;32;34005;-65
2021/12/22 07:07:45;;;;;;;15.00;8.18;;;;;;;-0.07;61.22;101025.69;4468494;32;34070;-63
2021/12/22 07:10:12;;;;;;;13.93;7.28;;;;;;;-0.02;60.96;101035.94;4468431;32;35043;-63
2021/12/22 07:12:47;;;;;;;14.00;8.00;;;;;;;0.34;61.04;101036.81;4468740;32;33552;-64
2021/12/22 07:15:17;;;;;;;12.90;7.82;;;;;;;0.51;60.44;101035.16;4468301;32;34715;-64
2021/12/22 07:17:47;;;;;;;12.43;7.45;;;;;;;0.25;60.92;101040.41;4467844;32;34284;-65
2021/12/22 07:20:15;;;;;;;11.32;6.80;;;;;;;0.18;60.80;101032.16;4467999;32;33924;-62
2021/12/22 07:22:43;;;;;;;12.13;6.57;;;;;;;0.16;59.86;101030.63;4468197;32;34441;-64
2021/12/22 07:25:12;;;;;;;8.85;5.97;;;;;;;0.27;59.01;101033.09;4468341;32;33656;-63
2021/12/22 07:27:39;;;;;;;12.27;6.85;;;;;;;0.44;57.37;101031.44;4467702;32;34278;-62
2021/12/22 07:30:07;;;;;;;11.40;7.00;;;;;;;0.20;57.72;101035.53;4479669;32;34211;-64
2021/12/22 07:32:35;;;;;;;14.77;7.82;;;;;;;0.68;56.22;101035.34;4468290;32;33693;-62
2021/12/22 07:35:05;;;;;;;14.30;8.25;;;;;;;0.93;55.29;101039.91;4468081;32;33507;-63
2021/12/22 07:37:39;;;;;;;0.93;0.93;;;;;;;0.61;56.42;101038.62;4468041;32;34269;-63
2021/12/22 07:40:12;;;;;;;15.45;8.57;;;;;;;-0.07;58.43;101039.03;4468178;32;33960;-64
2021/12/22 07:42:41;;;;;;;0.95;0.82;;;;;;;-0.13;59.32;101044.97;4468442;32;34624;-64
2021/12/22 07:45:09;;;;;;;15.95;9.27;;;;;;;0.06;59.42;101041.34;4467656;32;33668;-62
2021/12/22 07:47:37;;;;;;;20.02;10.95;;;;;;;0.13;59.41;101041.59;4468306;32;34168;-64
2021/12/22 07:50:07;;;;;;;17.75;11.73;;;;;;;-0.27;61.27;101048.94;4467684;32;35014;-63
2021/12/22 07:52:34;;;;;;;17.98;10.82;;;;;;;-0.33;62.24;101057.53;4468649;32;33690;-64
2021/12/22 07:55:02;;;;;;;4.75;3.22;;;;;;;-0.12;61.72;101059.16;4468211;32;34091;-63
2021/12/22 07:57:30;;;;;;;1.40;1.30;;;;;;;0.10;60.25;101057.91;4467956;32;34253;-62
2021/12/22 07:59:58;;;;;;;0.88;0.85;;;;;;;0.42;59.83;101061.94;4467892;32;34198;-65
2021/12/22 08:02:25;;;;;;;15.93;9.52;;;;;;;1.07;57.63;101072.44;4468070;32;34226;-63
2021/12/22 08:04:53;;;;;;;15.68;8.48;;;;;;;1.19;55.76;101068.53;4467676;32;33767;-64
2021/12/22 08:07:20;;;;;;;16.45;8.88;;;;;;;0.92;55.77;101069.44;4468115;32;34301;-64
2021/12/22 08:09:48;;;;;;;16.85;9.38;;;;;;;0.65;56.97;101073.03;4466258;32;34257;-64
2021/12/22 08:12:15;;;;;;;13.07;8.05;;;;;;;0.22;58.24;101069.22;4467982;32;33472;-65
2021/12/22 08:14:43;;;;;;;10.93;7.57;;;;;;;0.64;56.85;101080.19;4467901;32;33402;-65
2021/12/22 08:17:10;;;;;;;12.43;7.82;;;;;;;-0.01;58.76;101083.78;4479066;32;35323;-65
2021/12/22 08:19:38;;;;;;;13.25;7.55;;;;;;;-0.18;59.32;101084.56;4483227;32;34003;-65
2021/12/22 08:22:06;;;;;;;13.90;8.10;;;;;;;0.18;58.12;101077.53;4483684;32;33579;-65
2021/12/22 08:24:33;;;;;;;12.90;8.10;;;;;;;0.75;57.37;101085.31;4483638;32;34091;-64
2021/12/22 08:27:01;;;;;;;14.05;7.72;;;;;;;0.85;55.33;101079.09;4483537;32;33937;-65
2021/12/22 08:29:28;;;;;;;13.15;7.78;;;;;;;0.38;58.07;101085.44;4483087;32;33892;-65
2021/12/22 08:31:56;;;;;;;0.73;0.70;;;;;;;0.43;58.41;101091.16;4482691;32;34397;-69
2021/12/22 08:34:26;;;;;;;0.82;0.77;;;;;;;1.48;54.88;101086.09;4483389;32;34066;-66
2021/12/22 08:39:40;;;;;;;13.10;7.93;;;;;;;0.84;56.49;101088.06;4481881;32;34197;-64
2021/12/22 08:42:08;;;;;;;17.58;9.63;;;;;;;1.06;55.77;101094.78;4483971;32;34580;-67
2021/12/22 08:44:35;;;;;;;9.80;6.22;;;;;;;0.85;56.88;101100.47;4483041;32;34572;-67
2021/12/22 08:47:03;;;;;;;10.70;5.15;;;;;;;1.27;54.03;101099.81;4483341;32;34914;-65
2021/12/22 08:49:30;;;;;;;8.00;4.70;;;;;;;1.95;50.94;101102.63;4483145;32;34248;-66
2021/12/22 08:51:58;;;;;;;20.42;10.85;;;;;;;0.75;52.75;101100.50;4483464;32;34392;-65
2021/12/22 08:54:26;;;;;;;15.30;8.32;;;;;;;1.36;53.13;101112.25;4483285;32;34491;-64
2021/12/22 08:56:55;;;;;;;12.90;7.32;;;;;;;1.83;51.63;101098.53;4483494;32;34124;-64
2021/12/22 08:59:23;;;;;;;12.20;7.55;;;;;;;1.40;52.46;101106.47;4483225;32;34292;-66
2021/12/22 09:01:51;;;;;;;9.90;5.50;;;;;;;1.71;52.23;101103.31;4483020;32;33670;-65
2021/12/22 09:04:20;;;;;;;8.73;5.22;;;;;;;1.96;51.56;101106.12;4483477;32;34028;-65
2021/12/22 09:06:48;;;;;;;10.15;5.68;;;;;;;2.35;49.42;101114.50;4483187;32;33966;-66
2021/12/22 09:09:18;;;;;;;10.32;6.15;;;;;;;2.56;48.22;101111.41;4483131;32;35029;-66
2021/12/22 09:11:47;;;;;;;0.90;0.80;;;;;;;1.84;49.25;101103.72;4480584;32;33527;-64
2021/12/22 09:14:14;;;;;;;9.38;5.62;;;;;;;2.43;47.23;101101.16;4482669;32;33704;-65
2021/12/22 09:16:42;;;;;;;2.10;1.95;;;;;;;2.10;47.71;101102.88;4482029;32;34057;-67
2021/12/22 09:19:10;;;;;;;0.80;0.80;;;;;;;1.26;50.13;101098.97;4482900;32;34694;-67
2021/12/22 09:21:38;;;;;;;8.90;5.12;;;;;;;2.25;47.74;101109.28;4483706;32;34355;-66
2021/12/22 09:24:06;;;;;;;8.55;5.47;;;;;;;2.32;47.86;101098.78;4483500;32;33900;-67
2021/12/22 09:26:35;;;;;;;8.35;4.97;;;;;;;1.78;48.32;101098.19;4482524;32;35098;-66
2021/12/22 09:29:03;;;;;;;9.80;5.43;;;;;;;2.32;46.67;101104.13;4482413;32;33783;-67
2021/12/22 09:31:31;;;;;;;0.85;0.70;;;;;;;2.85;46.28;101102.09;4483177;32;33376;-66
2021/12/22 09:33:59;;;;;;;10.02;5.87;;;;;;;2.75;45.80;101104.09;4483198;32;34690;-67
2021/12/22 09:36:26;;;;;;;10.70;6.22;;;;;;;1.59;49.31;101102.72;4483035;32;34182;-67
2021/12/22 09:38:54;;;;;;;10.98;6.35;;;;;;;2.62;47.22;101108.06;4482595;32;33989;-67
2021/12/22 09:41:22;;;;;;;10.73;5.62;;;;;;;2.93;47.40;101103.94;4482401;32;33626;-67
2021/12/22 09:43:55;;;;;;;13.27;6.22;;;;;;;1.70;48.56;101106.97;4482833;32;33962;-67
2021/12/22 09:46:29;;;;;;;10.52;5.90;;;;;;;2.22;48.29;101100.72;4483317;32;34214;-68
2021/12/22 09:49:07;;;;;;;11.95;6.72;;;;;;;1.74;48.92;101102.16;4482766;32;34954;-68
2021/12/22 09:54:05;;;;;;;1.10;0.70;;;;;;;2.51;45.80;101105.69;4485502;32;34804;-68
2021/12/22 09:56:33;;;;;;;11.68;5.75;;;;;;;1.94;47.44;101092.91;4485060;32;33962;-68
2021/12/22 09:59:01;;;;;;;11.85;6.12;;;;;;;2.15;47.66;101089.81;4484975;32;34312;-68
2021/12/22 10:01:29;;;;;;;13.62;6.78;;;;;;;2.55;46.40;101096.34;4485316;32;33836;-68
2021/12/22 10:03:59;;;;;;;10.35;6.62;;;;;;;1.92;47.93;101094.87;4485132;32;34794;-68
2021/12/22 10:06:27;;;;;;;14.20;7.35;;;;;;;1.92;48.12;101097.56;4484990;32;34942;-68
2021/12/22 10:09:00;;;;;;;13.00;7.00;;;;;;;2.31;48.83;101089.06;4484978;32;34147;-68
2021/12/22 10:11:32;;;;;;;12.85;7.50;;;;;;;2.80;48.06;101099.06;4484961;32;33786;-68
2021/12/22 10:13:59;;;;;;;13.80;7.45;;;;;;;1.74;49.08;101099.47;4485112;32;34039;-69
2021/12/22 10:16:28;;;;;;;11.85;6.95;;;;;;;1.91;49.71;101093.22;4484865;32;34929;-69
2021/12/22 10:19:07;;;;;;;11.55;7.15;;;;;;;2.45;48.26;101096.47;4484641;32;34338;-69
2021/12/22 10:21:50;;;;;;;11.15;6.55;;;;;;;2.43;48.79;101089.59;4485171;32;33697;-68
2021/12/22 10:24:18;;;;;;;1.20;0.73;;;;;;;1.63;48.73;101089.88;4474073;32;33918;-67
2021/12/22 10:26:45;;;;;;;12.82;7.12;;;;;;;0.97;51.61;101096.53;4468701;32;34286;-69
2021/12/22 10:29:13;;;;;;;10.35;6.55;;;;;;;1.72;50.07;101088.09;4468634;32;34156;-65
2021/12/22 10:31:43;;;;;;;11.00;6.35;;;;;;;1.91;48.29;101089.72;4467815;32;34668;-69
2021/12/22 10:34:16;;;;;;;3.03;1.98;;;;;;;2.17;47.09;101081.63;4467978;32;34633;-70
2021/12/22 10:36:52;;;;;;;11.88;7.22;;;;;;;1.39;48.73;101083.38;4469159;32;34987;-69
2021/12/22 10:39:33;;;;;;;12.30;7.43;;;;;;;0.57;52.15;101082.62;4468972;32;33980;-69
2021/12/22 10:42:10;;;;;;;12.63;7.25;;;;;;;1.07;51.62;101085.78;4469135;32;32902;-69
2021/12/22 10:44:42;;;;;;;11.12;6.70;;;;;;;0.96;50.46;101079.69;4469688;32;34741;-69
2021/12/22 10:47:35;;;;;;;12.68;7.37;;;;;;;0.21;52.73;101084.41;4467932;32;34179;-70
2021/12/22 10:50:06;;;;;;;13.70;7.20;;;;;;;0.83;50.59;101079.22;4468912;32;33245;-70
2021/12/22 10:52:34;;;;;;;15.40;8.65;;;;;;;0.82;51.47;101075.72;4469123;32;33427;-70
2021/12/22 10:55:09;;;;;;;13.40;6.90;;;;;;;0.83;51.26;101076.56;4469361;32;33832;-70
2021/12/22 10:57:43;;;;;;;12.80;7.18;;;;;;;0.98;51.14;101079.53;4467824;32;34295;-70
2021/12/22 11:00:19;;;;;;;14.87;8.63;;;;;;;1.84;49.42;101076.97;4467717;32;33761;-68
2021/12/22 11:03:10;;;;;;;13.68;8.20;;;;;;;1.51;49.04;101081.28;4468112;32;33512;-70
2021/12/22 11:05:56;;;;;;;17.48;8.23;;;;;;;1.96;49.43;101080.19;4468015;32;33737;-69
2021/12/22 11:08:26;;;;;;;13.70;7.95;;;;;;;2.09;49.90;101068.22;4468963;32;34179;-69
2021/12/22 11:10:53;;;;;;;12.43;8.02;;;;;;;1.50;50.47;101071.56;4467256;32;34574;-66
2021/12/22 11:13:23;;;;;;;15.55;8.38;;;;;;;1.88;49.13;101071.28;4468421;32;33350;-68
2021/12/22 11:15:51;;;;;;;15.05;8.30;;;;;;;1.82;50.12;101070.94;4469118;32;34004;-66
2021/12/22 11:18:26;;;;;;;16.02;9.02;;;;;;;1.39;50.65;101071.84;4469127;32;33910;-67
2021/12/22 11:21:30;;;;;;;2.55;1.70;;;;;;;1.13;51.54;101063.78;4467119;32;33994;-64
2021/12/22 11:23:57;;;;;;;15.48;8.95;;;;;;;2.05;49.91;101059.66;4459002;32;33787;-65
2021/12/22 11:26:25;;;;;;;17.62;9.38;;;;;;;1.43;50.99;101052.66;4467841;32;34018;-67
2021/12/22 11:28:52;;;;;;;15.20;8.73;;;;;;;1.51;51.02;101057.22;4468520;32;34272;-66
2021/12/22 11:31:20;;;;;;;1.05;0.73;;;;;;;1.40;51.14;101058.31;4468797;32;35291;-66
2021/12/22 11:33:48;;;;;;;14.15;8.95;;;;;;;1.93;49.97;101052.94;4467751;32;34406;-71
2021/12/22 11:36:15;;;;;;;0.60;0.60;;;;;;;1.91;49.28;101052.25;4468907;32;34731;-73
2021/12/22 11:38:43;;;;;;;19.58;10.43;;;;;;;2.44;48.61;101043.91;4468396;32;33816;-69
2021/12/22 11:43:43;;;;;;;3.70;2.05;;;;;;;2.44;49.65;101045.72;4468886;32;33645;-76
2021/12/22 11:46:12;;;;;;;13.93;8.40;;;;;;;2.84;47.92;101046.81;4468820;32;33501;-76
2021/12/22 11:48:41;;;;;;;13.02;8.25;;;;;;;2.00;49.11;101045.94;4468318;32;34201;-79
2021/12/22 11:51:29;;;;;;;15.32;9.75;;;;;;;1.05;51.28;101037.00;4468058;32;34956;-73